createdAt,value
2018-12-19T00:00:24.119Z,8.43
2018-12-19T00:02:55.389Z,8.79
2018-12-19T00:05:27.111Z,9.07
2018-12-19T00:07:56.374Z,9.02
2018-12-19T00:10:25.645Z,9.29
2018-12-19T00:12:56.078Z,8.77
2018-12-19T00:15:26.527Z,9.04
2018-12-19T00:17:56.091Z,8.41
2018-12-19T00:20:25.315Z,9.10
2018-12-19T00:22:54.576Z,8.93
2018-12-19T00:25:23.738Z,8.93
2018-12-19T00:27:55.087Z,9.33
2018-12-19T00:30:26.822Z,9.30
2018-12-19T00:32:58.028Z,9.37
2018-12-19T00:35:29.234Z,9.35
2018-12-19T00:37:58.410Z,9.58
2018-12-19T00:40:28.258Z,9.84
2018-12-19T00:42:57.774Z,9.63
2018-12-19T00:45:27.031Z,9.42
2018-12-19T00:47:56.739Z,9.80
2018-12-19T00:50:25.946Z,9.71
2018-12-19T00:52:55.583Z,9.52
2018-12-19T00:55:25.621Z,9.54
2018-12-19T00:57:54.775Z,9.47
2018-12-19T01:00:23.952Z,9.25
2018-12-19T01:02:53.243Z,8.84
2018-12-19T01:05:23.919Z,9.35
2018-12-19T01:07:53.092Z,9.31
2018-12-19T01:10:23.400Z,9.37
2018-12-19T01:12:52.582Z,9.40
2018-12-19T01:15:21.779Z,8.92
2018-12-19T01:17:51.507Z,8.71
2018-12-19T01:20:20.697Z,9.12
2018-12-19T01:22:49.867Z,8.85
2018-12-19T01:25:19.086Z,9.12
2018-12-19T01:27:48.218Z,9.20
2018-12-19T01:30:17.935Z,9.05
2018-12-19T01:32:47.153Z,8.68
2018-12-19T01:35:16.335Z,8.98
2018-12-19T01:37:45.570Z,9.09
2018-12-19T01:40:16.116Z,9.58
2018-12-19T01:42:45.663Z,9.26
2018-12-19T01:45:14.875Z,9.08
2018-12-19T01:47:44.290Z,9.20
2018-12-19T01:50:13.523Z,9.21
2018-12-19T01:52:42.759Z,9.56
2018-12-19T01:55:12.383Z,9.34
2018-12-19T01:57:42.780Z,9.25
2018-12-19T02:00:12.053Z,9.39
2018-12-19T02:02:41.730Z,9.43
2018-12-19T02:05:10.908Z,9.50
2018-12-19T02:07:41.632Z,9.98
2018-12-19T02:10:10.879Z,10.09
2018-12-19T02:12:40.107Z,10.22
2018-12-19T02:15:09.281Z,9.88
2018-12-19T02:17:38.707Z,10.04
2018-12-19T02:20:08.479Z,9.52
2018-12-19T02:22:37.646Z,10.09
2018-12-19T02:25:07.139Z,10.36
2018-12-19T02:27:36.345Z,10.28
2018-12-19T02:30:06.346Z,9.97
2018-12-19T02:32:36.087Z,10.27
2018-12-19T02:35:05.523Z,9.52
2018-12-19T02:37:34.679Z,9.49
2018-12-19T02:40:04.546Z,9.41
2018-12-19T02:42:33.719Z,9.74
2018-12-19T02:45:03.427Z,9.62
2018-12-19T02:47:32.642Z,9.37
2018-12-19T02:50:01.810Z,9.46
2018-12-19T02:52:30.944Z,9.70
2018-12-19T02:55:00.221Z,10.05
2018-12-19T02:57:30.844Z,9.95
2018-12-19T03:00:02.005Z,10.32
2018-12-19T03:02:32.290Z,10.56
2018-12-19T03:05:01.530Z,10.69
2018-12-19T03:07:30.812Z,10.56
2018-12-19T03:10:00.575Z,10.69
2018-12-19T03:12:29.747Z,10.88
2018-12-19T03:14:58.941Z,10.51
2018-12-19T03:17:28.114Z,10.84
2018-12-19T03:19:57.359Z,10.78
2018-12-19T03:22:28.402Z,10.53
2018-12-19T03:24:57.587Z,10.61
2018-12-19T03:27:26.811Z,10.62
2018-12-19T03:29:56.047Z,10.10
2018-12-19T03:32:25.207Z,10.14
2018-12-19T03:34:55.394Z,10.02
2018-12-19T03:37:24.676Z,9.73
2018-12-19T03:39:53.867Z,9.73
2018-12-19T03:42:23.034Z,10.05
2018-12-19T03:44:52.375Z,9.87
2018-12-19T03:47:22.214Z,9.99
2018-12-19T03:49:51.703Z,10.10
2018-12-19T03:52:21.099Z,10.23
2018-12-19T03:54:50.263Z,10.30
2018-12-19T03:57:19.668Z,9.93
2018-12-19T03:59:49.453Z,10.13
2018-12-19T04:02:20.059Z,9.83
2018-12-19T04:04:49.463Z,10.50
2018-12-19T04:07:18.621Z,10.49
2018-12-19T04:09:47.821Z,10.51
2018-12-19T04:12:17.491Z,10.88
2018-12-19T04:21:35.689Z,10.64
2018-12-19T04:24:05.359Z,10.54
2018-12-19T04:26:34.632Z,10.62
2018-12-19T04:29:04.427Z,11.20
2018-12-19T04:31:33.648Z,11.30
2018-12-19T04:34:02.897Z,11.73
2018-12-19T04:36:32.764Z,11.06
2018-12-19T04:39:02.054Z,10.84
2018-12-19T04:41:31.233Z,11.61
2018-12-19T04:44:00.595Z,11.39
2018-12-19T04:46:29.764Z,11.20
2018-12-19T04:48:59.431Z,11.57
2018-12-19T04:51:28.719Z,11.39
2018-12-19T04:53:58.025Z,11.55
2018-12-19T04:56:27.271Z,11.31
2018-12-19T04:58:56.486Z,11.27
2018-12-19T05:01:26.250Z,11.51
2018-12-19T05:03:56.644Z,11.39
2018-12-19T05:06:26.434Z,11.31
2018-12-19T05:08:55.612Z,11.04
2018-12-19T05:11:24.834Z,11.17
2018-12-19T05:13:54.639Z,11.47
2018-12-19T05:16:24.499Z,11.52
2018-12-19T05:18:53.764Z,11.12
2018-12-19T05:21:22.998Z,11.47
2018-12-19T05:23:52.264Z,11.55
2018-12-19T05:26:22.143Z,12.11
2018-12-19T05:28:51.405Z,11.85
2018-12-19T05:31:20.580Z,12.00
2018-12-19T05:33:49.807Z,12.15
2018-12-19T05:36:19.118Z,11.89
2018-12-19T05:38:48.779Z,11.90
2018-12-19T05:41:18.062Z,12.24
2018-12-19T05:43:47.243Z,12.26
2018-12-19T05:46:16.479Z,12.40
2018-12-19T05:48:45.741Z,12.46
2018-12-19T05:51:15.466Z,12.07
2018-12-19T05:53:44.632Z,12.04
2018-12-19T05:56:13.790Z,12.32
2018-12-19T05:58:43.581Z,12.39
2018-12-19T06:01:12.819Z,12.24
2018-12-19T06:03:44.669Z,12.13
2018-12-19T06:06:14.927Z,12.34
2018-12-19T06:08:44.127Z,12.22
2018-12-19T06:11:14.324Z,12.30
2018-12-19T06:13:43.529Z,12.10
2018-12-19T06:16:13.148Z,11.66
2018-12-19T06:18:42.540Z,12.34
2018-12-19T06:21:11.718Z,12.10
2018-12-19T06:23:40.970Z,12.19
2018-12-19T06:26:10.169Z,12.13
2018-12-19T06:28:45.448Z,11.92
2018-12-19T06:31:14.887Z,11.76
2018-12-19T06:33:44.806Z,12.21
2018-12-19T06:36:14.100Z,12.20
2018-12-19T06:38:43.389Z,12.25
2018-12-19T06:41:13.040Z,12.01
2018-12-19T06:43:42.751Z,12.15
2018-12-19T06:46:12.544Z,12.51
2018-12-19T06:48:41.804Z,12.27
2018-12-19T06:51:10.985Z,12.44
2018-12-19T06:53:40.818Z,12.73
2018-12-19T06:56:10.003Z,12.62
2018-12-19T06:58:39.176Z,12.32
2018-12-19T07:01:08.474Z,12.76
2018-12-19T07:03:37.679Z,12.92
2018-12-19T07:06:07.238Z,12.82
2018-12-19T07:08:39.208Z,12.87
2018-12-19T07:11:08.477Z,12.68
2018-12-19T07:13:37.751Z,12.77
2018-12-19T07:16:06.973Z,12.75
2018-12-19T07:18:36.892Z,12.74
2018-12-19T07:21:06.119Z,12.73
2018-12-19T07:23:35.483Z,13.22
2018-12-19T07:26:04.748Z,13.18
2018-12-19T07:28:33.932Z,13.11
2018-12-19T07:31:03.692Z,12.59
2018-12-19T07:33:32.843Z,12.47
2018-12-19T07:36:02.089Z,13.12
2018-12-19T07:38:31.323Z,13.02
2018-12-19T07:41:00.489Z,12.16
2018-12-19T07:43:30.300Z,12.65
2018-12-19T07:46:00.111Z,12.51
2018-12-19T07:48:29.595Z,12.80
2018-12-19T07:50:58.759Z,12.98
2018-12-19T07:53:27.947Z,13.16
2018-12-19T07:55:58.630Z,12.98
2018-12-19T07:58:27.791Z,13.14
2018-12-19T08:00:57.153Z,13.13
2018-12-19T08:03:26.351Z,13.18
2018-12-19T08:05:56.316Z,12.57
2018-12-19T08:08:26.453Z,13.11
2018-12-19T08:10:56.523Z,12.89
2018-12-19T08:13:25.689Z,12.55
2018-12-19T08:15:55.948Z,12.94
2018-12-19T08:18:25.315Z,12.89
2018-12-19T08:20:54.988Z,12.82
2018-12-19T08:23:24.159Z,12.75
2018-12-19T08:25:53.341Z,12.89
2018-12-19T08:28:22.565Z,12.86
2018-12-19T08:30:51.827Z,12.99
2018-12-19T08:33:22.400Z,12.81
2018-12-19T08:35:51.784Z,12.86
2018-12-19T08:38:21.039Z,12.88
2018-12-19T08:40:50.326Z,12.60
2018-12-19T08:43:19.503Z,13.08
2018-12-19T08:45:50.262Z,13.08
2018-12-19T08:48:19.427Z,12.84
2018-12-19T08:50:48.600Z,13.13
2018-12-19T08:53:17.863Z,13.32
2018-12-19T08:55:47.040Z,13.41
2018-12-19T08:58:17.006Z,13.57
2018-12-19T09:00:46.405Z,13.48
2018-12-19T09:03:15.601Z,13.56
2018-12-19T09:05:45.292Z,13.49
2018-12-19T09:08:15.860Z,13.71
2018-12-19T09:10:45.806Z,13.77
2018-12-19T09:13:16.027Z,13.87
2018-12-19T09:16:00.072Z,13.60
2018-12-19T09:18:29.307Z,13.68
2018-12-19T09:20:58.922Z,14.01
2018-12-19T09:23:28.088Z,13.82
2018-12-19T09:25:57.319Z,14.16
2018-12-19T09:28:27.547Z,14.35
2018-12-19T09:30:56.709Z,14.53
2018-12-19T09:33:27.568Z,14.49
2018-12-19T09:35:56.972Z,14.39
2018-12-19T09:38:26.141Z,14.28
2018-12-19T09:40:56.752Z,14.49
2018-12-19T09:43:25.897Z,14.46
2018-12-19T09:45:55.644Z,13.94
2018-12-19T09:48:24.861Z,14.16
2018-12-19T09:50:54.047Z,14.07
2018-12-19T09:53:23.403Z,13.89
2018-12-19T09:55:52.603Z,14.13
2018-12-19T09:58:22.159Z,14.52
2018-12-19T10:00:51.332Z,14.29
2018-12-19T10:03:21.762Z,14.64
2018-12-19T10:05:50.984Z,14.36
2018-12-19T10:08:20.344Z,15.03
2018-12-19T10:10:49.995Z,15.28
2018-12-19T10:13:20.321Z,15.83
2018-12-19T10:15:49.569Z,16.49
2018-12-19T10:18:18.807Z,17.39
2018-12-19T10:20:47.967Z,17.86
2018-12-19T10:23:17.622Z,17.61
2018-12-19T10:25:51.111Z,16.99
2018-12-19T10:28:24.412Z,17.50
2018-12-19T10:30:53.607Z,17.88
2018-12-19T10:33:23.507Z,17.67
2018-12-19T10:35:53.271Z,18.63
2018-12-19T10:38:22.880Z,18.89
2018-12-19T10:40:52.080Z,19.36
2018-12-19T10:43:21.281Z,20.06
2018-12-19T10:45:52.307Z,21.42
2018-12-19T10:48:21.486Z,22.19
2018-12-19T10:50:50.644Z,22.43
2018-12-19T10:53:19.965Z,23.23
2018-12-19T10:55:49.151Z,23.90
2018-12-19T10:58:18.814Z,24.78
2018-12-19T11:00:54.576Z,25.20
2018-12-19T11:03:23.731Z,25.59
2018-12-19T11:05:54.571Z,26.08
2018-12-19T11:08:24.395Z,26.93
2018-12-19T11:10:53.701Z,26.31
2018-12-19T11:13:23.698Z,25.39
2018-12-19T11:15:53.043Z,22.56
2018-12-19T11:18:22.219Z,21.04
2018-12-19T11:20:52.159Z,20.03
2018-12-19T11:23:22.438Z,19.12
2018-12-19T11:25:51.603Z,18.30
2018-12-19T11:28:20.780Z,18.23
2018-12-19T11:30:50.135Z,17.56
2018-12-19T11:33:19.880Z,16.43
2018-12-19T11:35:49.050Z,16.30
2018-12-19T11:38:18.311Z,16.57
2018-12-19T11:40:47.510Z,15.64
2018-12-19T11:43:16.755Z,15.47
2018-12-19T11:45:46.470Z,15.25
2018-12-19T11:48:15.654Z,15.61
2018-12-19T11:50:44.911Z,15.23
2018-12-19T11:53:14.093Z,15.69
2018-12-19T11:55:43.294Z,15.92
2018-12-19T11:58:13.003Z,15.81
2018-12-19T12:00:42.275Z,15.78
2018-12-19T12:03:11.443Z,15.78
2018-12-19T12:05:40.595Z,16.16
2018-12-19T12:08:09.923Z,15.90
2018-12-19T12:10:39.596Z,15.90
2018-12-19T12:13:08.792Z,15.69
2018-12-19T12:15:40.179Z,15.87
2018-12-19T12:18:09.318Z,15.74
2018-12-19T12:20:38.606Z,15.64
2018-12-19T12:23:08.279Z,16.22
2018-12-19T12:25:37.434Z,15.61
2018-12-19T12:28:06.747Z,16.14
2018-12-19T12:30:36.052Z,15.62
2018-12-19T12:33:05.247Z,15.61
2018-12-19T12:35:34.872Z,15.71
2018-12-19T12:38:05.538Z,15.75
2018-12-19T12:40:34.801Z,15.28
2018-12-19T12:43:04.024Z,15.09
2018-12-19T12:45:33.254Z,15.40
2018-12-19T12:48:02.923Z,15.48
2018-12-19T12:50:32.104Z,15.57
2018-12-19T12:53:01.303Z,15.66
2018-12-19T12:55:30.527Z,15.91
2018-12-19T12:57:59.746Z,16.07
2018-12-19T13:00:29.582Z,16.52
2018-12-19T13:02:58.823Z,16.47
2018-12-19T13:05:28.063Z,16.55
2018-12-19T13:07:57.282Z,16.46
2018-12-19T13:10:26.460Z,16.67
2018-12-19T13:12:56.158Z,16.56
2018-12-19T13:15:31.971Z,16.32
2018-12-19T13:18:02.070Z,16.40
2018-12-19T13:20:31.245Z,16.49
2018-12-19T13:23:00.979Z,16.27
2018-12-19T13:25:30.307Z,16.16
2018-12-19T13:27:59.604Z,16.31
2018-12-19T13:30:28.847Z,16.69
2018-12-19T13:32:59.005Z,16.68
2018-12-19T13:35:28.697Z,16.35
2018-12-19T13:37:58.936Z,16.41
2018-12-19T13:40:28.173Z,16.53
2018-12-19T13:42:57.362Z,16.75
2018-12-19T13:45:26.679Z,16.47
2018-12-19T13:47:56.314Z,16.71
2018-12-19T13:50:25.533Z,16.72
2018-12-19T13:52:54.802Z,16.93
2018-12-19T13:55:23.947Z,16.46
2018-12-19T13:57:53.219Z,16.55
2018-12-19T14:00:23.927Z,16.00
2018-12-19T14:02:53.192Z,16.33
2018-12-19T14:05:22.357Z,16.49
2018-12-19T14:07:51.626Z,16.46
2018-12-19T14:10:21.382Z,16.10
2018-12-19T14:12:51.076Z,16.43
2018-12-19T14:15:22.392Z,16.45
2018-12-19T14:17:51.641Z,16.29
2018-12-19T14:20:22.319Z,16.30
2018-12-19T14:22:52.443Z,16.11
2018-12-19T14:25:23.786Z,15.88
2018-12-19T14:27:53.209Z,15.87
2018-12-19T14:30:22.497Z,15.68
2018-12-19T14:32:51.670Z,16.03
2018-12-19T14:35:22.343Z,15.90
2018-12-19T14:37:51.957Z,15.32
2018-12-19T14:40:21.100Z,15.38
2018-12-19T14:42:50.398Z,15.39
2018-12-19T14:45:19.576Z,15.66
2018-12-19T14:47:48.854Z,15.64
2018-12-19T14:50:18.487Z,15.36
2018-12-19T14:52:47.727Z,15.43
2018-12-19T14:55:16.951Z,15.40
2018-12-19T14:57:46.131Z,15.61
2018-12-19T15:00:15.495Z,15.49
2018-12-19T15:02:45.218Z,15.47
2018-12-19T15:05:14.624Z,15.15
2018-12-19T15:07:43.879Z,15.24
2018-12-19T15:10:13.311Z,15.38
2018-12-19T15:12:42.684Z,15.67
2018-12-19T15:15:12.447Z,15.35
2018-12-19T15:17:41.611Z,15.41
2018-12-19T15:20:10.839Z,15.78
2018-12-19T15:22:41.587Z,15.79
2018-12-19T15:25:10.759Z,15.82
2018-12-19T15:27:42.031Z,15.78
2018-12-19T15:30:11.520Z,15.67
2018-12-19T15:32:42.003Z,15.68
2018-12-19T15:35:11.310Z,15.71
2018-12-19T15:37:40.511Z,15.43
2018-12-19T15:40:10.468Z,15.28
2018-12-19T15:42:39.697Z,15.32
2018-12-19T15:45:10.212Z,15.12
2018-12-19T15:47:39.524Z,14.96
2018-12-19T15:50:09.743Z,15.30
2018-12-19T15:52:39.373Z,14.91
2018-12-19T15:55:08.798Z,15.18
2018-12-19T15:57:38.202Z,15.17
2018-12-19T16:00:09.751Z,15.63
2018-12-19T16:02:39.004Z,15.54
2018-12-19T16:05:08.969Z,15.11
2018-12-19T16:07:38.692Z,15.42
2018-12-19T16:10:08.544Z,15.61
2018-12-19T16:12:39.302Z,15.63
2018-12-19T16:15:09.475Z,15.74
2018-12-19T16:17:38.795Z,15.93
2018-12-19T16:20:09.086Z,16.15
2018-12-19T16:22:39.375Z,15.92
2018-12-19T16:25:09.780Z,15.71
2018-12-19T16:27:39.483Z,15.94
2018-12-19T16:30:10.059Z,15.86
2018-12-19T16:32:39.282Z,15.52
2018-12-19T16:35:08.610Z,15.76
2018-12-19T16:37:37.843Z,15.68
2018-12-19T16:40:07.748Z,15.78
2018-12-19T16:42:36.958Z,15.62
2018-12-19T16:45:07.407Z,15.41
2018-12-19T16:47:36.608Z,15.18
2018-12-19T16:50:07.016Z,15.08
2018-12-19T16:52:37.078Z,15.23
2018-12-19T16:55:06.639Z,14.84
2018-12-19T16:57:36.161Z,15.04
2018-12-19T17:00:06.536Z,15.10
2018-12-19T17:02:35.794Z,14.65
2018-12-19T17:05:06.082Z,13.97
2018-12-19T17:07:35.534Z,14.50
2018-12-19T17:10:07.958Z,14.60
2018-12-19T17:12:37.287Z,14.89
2018-12-19T17:15:07.058Z,14.45
2018-12-19T17:17:47.331Z,14.55
2018-12-19T17:20:16.614Z,14.36
2018-12-19T17:22:45.779Z,14.34
2018-12-19T17:25:18.521Z,14.52
2018-12-19T17:27:47.823Z,14.04
2018-12-19T17:30:17.059Z,14.35
2018-12-19T17:32:47.485Z,14.58
2018-12-19T17:35:16.823Z,14.00
2018-12-19T17:37:46.690Z,14.16
2018-12-19T17:40:15.956Z,13.98
2018-12-19T17:42:45.488Z,13.92
2018-12-19T17:45:14.821Z,13.90
2018-12-19T17:47:44.017Z,13.40
2018-12-19T17:50:13.795Z,13.67
2018-12-19T17:52:43.057Z,13.60
2018-12-19T17:55:12.260Z,13.51
2018-12-19T17:57:41.478Z,13.67
2018-12-19T18:00:12.433Z,13.85
2018-12-19T18:02:42.342Z,13.79
2018-12-19T18:05:11.626Z,14.03
2018-12-19T18:07:40.926Z,13.92
2018-12-19T18:10:10.255Z,13.72
2018-12-19T18:12:39.589Z,13.17
2018-12-19T18:15:09.398Z,13.70
2018-12-19T18:17:38.698Z,13.95
2018-12-19T18:20:08.256Z,13.81
2018-12-19T18:22:37.470Z,13.83
2018-12-19T18:25:06.759Z,14.01
2018-12-19T18:27:37.669Z,14.15
2018-12-19T18:30:08.508Z,14.22
2018-12-19T18:32:37.650Z,13.86
2018-12-19T18:35:07.887Z,13.93
2018-12-19T18:37:37.317Z,13.97
2018-12-19T18:40:07.111Z,13.92
2018-12-19T18:42:36.477Z,13.77
2018-12-19T18:45:11.736Z,14.05
2018-12-19T18:47:38.458Z,13.66
2018-12-19T18:50:10.192Z,13.42
2018-12-19T18:52:39.455Z,13.09
2018-12-19T18:55:08.747Z,13.71
2018-12-19T18:57:39.668Z,13.58
2018-12-19T19:00:10.688Z,13.78
2018-12-19T19:02:39.959Z,13.73
2018-12-19T19:05:10.237Z,14.09
2018-12-19T19:07:39.443Z,14.13
2018-12-19T19:10:08.832Z,14.16
2018-12-19T19:12:38.498Z,13.99
2018-12-19T19:15:07.749Z,13.99
2018-12-19T19:17:36.899Z,14.04
2018-12-19T19:20:06.287Z,14.09
2018-12-19T19:22:35.459Z,14.28
2018-12-19T19:25:05.539Z,14.21
2018-12-19T19:27:34.722Z,14.44
2018-12-19T19:30:05.972Z,14.13
2018-12-19T19:32:35.122Z,14.05
2018-12-19T19:35:04.700Z,14.30
2018-12-19T19:37:34.870Z,14.61
2018-12-19T19:40:04.419Z,14.56
2018-12-19T19:42:33.559Z,14.57
2018-12-19T19:45:02.700Z,14.18
2018-12-19T19:47:31.863Z,14.44
2018-12-19T19:50:01.487Z,14.53
2018-12-19T19:52:31.649Z,13.99
2018-12-19T19:55:01.359Z,13.75
2018-12-19T19:57:30.547Z,14.06
2018-12-19T20:00:00.784Z,14.07
2018-12-19T20:02:30.826Z,13.88
2018-12-19T20:05:00.024Z,14.10
2018-12-19T20:07:29.195Z,14.05
2018-12-19T20:09:58.364Z,13.67
2018-12-19T20:12:27.556Z,13.39
2018-12-19T20:14:58.517Z,13.51
2018-12-19T20:17:28.378Z,13.94
2018-12-19T20:19:57.636Z,13.76
2018-12-19T20:22:26.799Z,13.99
2018-12-19T20:24:56.182Z,13.86
2018-12-19T20:27:25.840Z,13.72
2018-12-19T20:29:54.992Z,13.24
2018-12-19T20:32:26.405Z,13.29
2018-12-19T20:34:55.554Z,13.37
2018-12-19T20:37:24.704Z,12.91
2018-12-19T20:39:54.508Z,13.35
2018-12-19T20:42:23.654Z,13.50
2018-12-19T20:44:52.808Z,13.76
2018-12-19T20:47:21.974Z,13.84
2018-12-19T20:49:51.120Z,14.03
2018-12-19T20:52:20.779Z,13.86
2018-12-19T20:54:50.121Z,13.60
2018-12-19T20:57:19.230Z,13.46
2018-12-19T20:59:49.521Z,13.66
2018-12-19T21:02:18.884Z,13.61
2018-12-19T21:04:48.495Z,13.44
2018-12-19T21:07:17.620Z,13.79
2018-12-19T21:09:47.437Z,13.88
2018-12-19T21:12:16.627Z,13.74
2018-12-19T21:14:45.779Z,13.77
2018-12-19T21:17:20.873Z,13.86
2018-12-19T21:19:50.159Z,13.93
2018-12-19T21:22:20.022Z,13.70
2018-12-19T21:24:49.236Z,13.48
2018-12-19T21:27:18.936Z,13.33
2018-12-19T21:29:49.207Z,13.46
2018-12-19T21:32:18.475Z,13.50
2018-12-19T21:34:49.031Z,13.56
2018-12-19T21:37:18.303Z,13.69
2018-12-19T21:39:47.996Z,13.67
2018-12-19T21:42:17.137Z,13.72
2018-12-19T21:44:46.404Z,13.82
2018-12-19T21:47:15.699Z,13.62
2018-12-19T21:49:44.876Z,13.58
2018-12-19T21:52:14.497Z,13.58
2018-12-19T21:54:43.843Z,13.20
2018-12-19T21:57:13.058Z,13.58
2018-12-19T21:59:42.424Z,13.48
2018-12-19T22:02:12.834Z,13.49
2018-12-19T22:04:42.657Z,13.78
2018-12-19T22:07:11.857Z,14.10
2018-12-19T22:09:41.185Z,13.92
2018-12-19T22:12:10.410Z,14.03
2018-12-19T22:14:39.676Z,14.23
2018-12-19T22:17:17.151Z,14.37
2018-12-19T22:19:46.409Z,14.33
2018-12-19T22:22:15.848Z,14.39
2018-12-19T22:24:45.081Z,14.41
2018-12-19T22:27:14.896Z,14.64
2018-12-19T22:29:58.672Z,14.55
2018-12-19T22:32:27.842Z,14.27
2018-12-19T22:34:58.225Z,14.08
2018-12-19T22:37:28.289Z,14.26
2018-12-19T22:39:57.532Z,13.94
2018-12-19T22:42:26.725Z,13.62
2018-12-19T22:44:56.393Z,13.86
2018-12-19T22:47:25.651Z,13.81
2018-12-19T22:49:55.367Z,13.99
2018-12-19T22:52:24.655Z,13.78
2018-12-19T22:54:53.819Z,13.77
2018-12-19T22:57:23.195Z,13.87
2018-12-19T22:59:52.543Z,13.67
2018-12-19T23:02:28.467Z,13.60
2018-12-19T23:04:57.744Z,13.79
2018-12-19T23:07:26.927Z,14.13
2018-12-19T23:09:56.132Z,14.12
2018-12-19T23:12:25.968Z,14.07
2018-12-19T23:14:55.226Z,13.87
2018-12-19T23:17:36.266Z,14.11
2018-12-19T23:20:11.548Z,13.95
2018-12-19T23:22:46.767Z,13.93
2018-12-19T23:25:21.549Z,14.01
2018-12-19T23:27:54.234Z,13.74
2018-12-19T23:30:23.445Z,13.86
2018-12-19T23:32:53.207Z,13.89
2018-12-19T23:35:23.339Z,13.76
2018-12-19T23:37:52.713Z,14.03
2018-12-19T23:40:21.960Z,13.61
2018-12-19T23:42:52.287Z,13.75
2018-12-19T23:45:21.949Z,13.24
2018-12-19T23:47:51.327Z,13.24
2018-12-19T23:50:20.632Z,13.67
2018-12-19T23:52:49.812Z,13.35
2018-12-19T23:55:19.138Z,13.19
2018-12-19T23:57:49.131Z,13.46
